createdAt,value
2023-07-25T00:01:46.384Z,98685.19
2023-07-25T00:04:13.905Z,98698.97
2023-07-25T00:06:41.547Z,98701.28
2023-07-25T00:09:08.939Z,98701.97
2023-07-25T00:11:36.644Z,98692.81
2023-07-25T00:14:03.962Z,98704.13
2023-07-25T00:16:31.599Z,98701.44
2023-07-25T00:18:58.969Z,98713.38
2023-07-25T00:21:26.636Z,98706.50
2023-07-25T00:23:54.474Z,98696.28
2023-07-25T00:26:22.123Z,98696.88
2023-07-25T00:28:49.427Z,98709.41
2023-07-25T00:31:17.147Z,98707.63
2023-07-25T00:33:44.953Z,98710.22
2023-07-25T00:36:12.593Z,98714.88
2023-07-25T00:38:39.975Z,98712.78
2023-07-25T00:41:07.613Z,98698.13
2023-07-25T00:43:35.132Z,98704.34
2023-07-25T00:46:02.882Z,98693.84
2023-07-25T00:48:31.617Z,98693.91
2023-07-25T00:50:59.077Z,98687.50
2023-07-25T00:53:27.989Z,98694.44
2023-07-25T00:55:55.349Z,98689.25
2023-07-25T00:58:23.092Z,98697.41
2023-07-25T01:00:50.671Z,98696.97
2023-07-25T01:03:18.933Z,98715.09
2023-07-25T01:05:50.469Z,98706.31
2023-07-25T01:08:18.175Z,98714.44
2023-07-25T01:10:45.525Z,98718.91
2023-07-25T01:13:13.198Z,98728.09
2023-07-25T01:15:41.478Z,98730.84
2023-07-25T01:18:10.222Z,98741.84
2023-07-25T01:20:39.126Z,98742.03
2023-07-25T01:23:08.066Z,98744.16
2023-07-25T01:25:36.255Z,98731.03
2023-07-25T01:28:04.005Z,98739.63
2023-07-25T01:30:32.179Z,98751.38
2023-07-25T01:33:00.314Z,98763.94
2023-07-25T01:35:28.556Z,98755.16
2023-07-25T01:37:56.287Z,98758.06
2023-07-25T01:40:24.213Z,98775.19
2023-07-25T01:43:10.481Z,98760.13
2023-07-25T01:45:37.992Z,98764.16
2023-07-25T01:48:05.924Z,98769.63
2023-07-25T01:50:33.511Z,98755.16
2023-07-25T01:53:01.240Z,98773.59
2023-07-25T01:55:28.578Z,98767.03
2023-07-25T01:57:56.409Z,98780.75
2023-07-25T02:00:23.996Z,98805.22
2023-07-25T02:02:52.414Z,98796.38
2023-07-25T02:05:19.770Z,98777.84
2023-07-25T02:07:47.478Z,98797.69
2023-07-25T02:10:15.717Z,98797.56
2023-07-25T02:12:43.367Z,98815.47
2023-07-25T02:15:11.217Z,98842.00
2023-07-25T02:17:38.962Z,98831.25
2023-07-25T02:20:09.108Z,98822.13
2023-07-25T02:22:36.941Z,98795.94
2023-07-25T02:25:04.562Z,98801.97
2023-07-25T02:27:32.232Z,98806.38
2023-07-25T02:29:59.548Z,98793.16
2023-07-25T02:32:27.318Z,98824.41
2023-07-25T02:34:54.819Z,98815.78
2023-07-25T02:37:22.534Z,98815.13
2023-07-25T02:39:49.959Z,98828.78
2023-07-25T02:42:17.684Z,98843.81
2023-07-25T02:44:45.102Z,98844.63
2023-07-25T02:47:12.732Z,98838.28
2023-07-25T02:49:40.070Z,98845.91
2023-07-25T02:52:08.421Z,98861.69
2023-07-25T02:54:35.857Z,98858.47
2023-07-25T02:57:03.695Z,98839.91
2023-07-25T02:59:31.130Z,98843.66
2023-07-25T03:01:58.921Z,98834.19
2023-07-25T03:04:26.382Z,98824.88
2023-07-25T03:06:53.997Z,98815.78
2023-07-25T03:09:21.309Z,98812.97
2023-07-25T03:11:49.033Z,98809.69
2023-07-25T03:14:16.497Z,98821.41
2023-07-25T03:16:44.273Z,98803.03
2023-07-25T03:19:11.638Z,98777.81
2023-07-25T03:21:39.756Z,98765.88
2023-07-25T03:24:07.258Z,98775.16
2023-07-25T03:26:34.948Z,98768.31
2023-07-25T03:29:02.399Z,98767.19
2023-07-25T03:31:30.324Z,98772.63
2023-07-25T03:33:57.975Z,98773.16
2023-07-25T03:36:26.420Z,98794.00
2023-07-25T03:38:53.707Z,98817.44
2023-07-25T03:41:21.629Z,98825.22
2023-07-25T03:43:49.385Z,98830.13
2023-07-25T03:46:17.076Z,98847.97
2023-07-25T03:48:44.488Z,98832.38
2023-07-25T03:51:12.168Z,98815.75
2023-07-25T03:53:39.481Z,98823.91
2023-07-25T03:56:08.604Z,98821.13
2023-07-25T03:58:35.971Z,98819.31
2023-07-25T04:01:03.911Z,98817.03
2023-07-25T04:03:31.595Z,98803.53
2023-07-25T04:05:59.546Z,98794.78
2023-07-25T04:08:26.880Z,98786.31
2023-07-25T04:10:54.498Z,98786.31
2023-07-25T04:13:21.976Z,98793.66
2023-07-25T04:15:49.605Z,98792.38
2023-07-25T04:18:16.996Z,98804.41
2023-07-25T04:20:44.848Z,98809.59
2023-07-25T04:23:12.376Z,98809.06
2023-07-25T04:25:40.149Z,98800.81
2023-07-25T04:28:08.196Z,98802.78
2023-07-25T04:30:35.849Z,98809.56
2023-07-25T04:33:03.145Z,98823.72
2023-07-25T04:35:30.926Z,98833.03
2023-07-25T04:37:58.180Z,98815.09
2023-07-25T04:40:26.955Z,98804.34
2023-07-25T04:42:54.817Z,98811.84
2023-07-25T04:45:22.510Z,98815.06
2023-07-25T04:47:49.897Z,98802.78
2023-07-25T04:50:17.642Z,98796.47
2023-07-25T04:52:44.879Z,98793.69
2023-07-25T04:55:12.645Z,98779.50
2023-07-25T04:57:40.268Z,98775.88
2023-07-25T05:00:08.776Z,98766.59
2023-07-25T05:02:36.726Z,98775.09
2023-07-25T05:05:04.838Z,98785.25
2023-07-25T05:07:32.204Z,98783.00
2023-07-25T05:09:59.932Z,98803.75
2023-07-25T05:12:27.364Z,98793.06
2023-07-25T05:14:55.089Z,98798.69
2023-07-25T05:17:22.420Z,98805.28
2023-07-25T05:19:50.984Z,98802.69
2023-07-25T05:22:18.721Z,98806.00
2023-07-25T05:24:46.862Z,98794.53
2023-07-25T05:27:14.418Z,98791.59
2023-07-25T05:29:42.046Z,98786.88
2023-07-25T05:32:09.575Z,98778.22
2023-07-25T05:34:37.161Z,98780.53
2023-07-25T05:37:04.649Z,98777.56
2023-07-25T05:39:32.315Z,98773.13
2023-07-25T05:41:59.787Z,98779.41
2023-07-25T05:44:27.483Z,98790.28
2023-07-25T05:46:54.789Z,98791.94
2023-07-25T05:49:22.561Z,98784.97
2023-07-25T05:51:52.727Z,98789.59
2023-07-25T05:54:20.842Z,98793.31
2023-07-25T05:56:48.110Z,98797.03
2023-07-25T05:59:15.812Z,98790.28
2023-07-25T06:01:43.403Z,98786.13
2023-07-25T06:04:14.883Z,98782.88
2023-07-25T06:06:43.699Z,98778.72
2023-07-25T06:09:13.694Z,98767.94
2023-07-25T06:11:41.572Z,98759.03
2023-07-25T06:14:09.755Z,98758.56
2023-07-25T06:16:37.267Z,98757.19
2023-07-25T06:19:04.990Z,98746.34
2023-07-25T06:21:33.846Z,98749.25
2023-07-25T06:24:01.996Z,98744.81
2023-07-25T06:26:29.858Z,98730.38
2023-07-25T06:28:57.511Z,98734.38
2023-07-25T06:31:25.318Z,98706.00
2023-07-25T06:33:53.134Z,98696.88
2023-07-25T06:36:20.794Z,98705.44
2023-07-25T06:38:49.428Z,98714.38
2023-07-25T06:41:16.913Z,98712.66
2023-07-25T06:43:44.707Z,98699.25
2023-07-25T06:46:12.097Z,98704.34
2023-07-25T06:48:40.922Z,98708.47
2023-07-25T06:51:08.187Z,98714.06
2023-07-25T06:53:35.737Z,98722.19
2023-07-25T06:56:03.057Z,98716.88
2023-07-25T06:58:30.833Z,98724.97
2023-07-25T07:00:59.641Z,98713.03
2023-07-25T07:03:27.483Z,98720.44
2023-07-25T07:05:56.761Z,98690.97
2023-07-25T07:08:25.260Z,98694.16
2023-07-25T07:10:56.320Z,98706.69
2023-07-25T07:13:24.408Z,98713.63
2023-07-25T07:15:51.831Z,98698.63
2023-07-25T07:18:19.618Z,98702.13
2023-07-25T07:20:49.408Z,98694.22
2023-07-25T07:23:18.710Z,98705.38
2023-07-25T07:25:46.629Z,98696.41
2023-07-25T07:28:14.781Z,98678.72
2023-07-25T07:30:42.344Z,98664.81
2023-07-25T07:33:09.958Z,98677.28
2023-07-25T07:35:37.260Z,98672.81
2023-07-25T07:38:04.869Z,98670.50
2023-07-25T07:40:32.123Z,98670.09
2023-07-25T07:42:59.851Z,98662.25
2023-07-25T07:45:28.541Z,98665.59
2023-07-25T07:47:56.370Z,98673.56
2023-07-25T07:50:23.764Z,98659.94
2023-07-25T07:52:51.480Z,98663.91
2023-07-25T07:55:18.855Z,98668.75
2023-07-25T07:57:47.948Z,98652.44
2023-07-25T08:00:16.794Z,98659.00
2023-07-25T08:02:46.731Z,98662.63
2023-07-25T08:05:15.111Z,98658.38
2023-07-25T08:07:43.094Z,98647.78
2023-07-25T08:10:11.281Z,98641.63
2023-07-25T08:12:39.348Z,98655.50
2023-07-25T08:15:07.378Z,98645.31
2023-07-25T08:17:35.318Z,98624.50
2023-07-25T08:20:05.347Z,98627.69
2023-07-25T08:22:35.270Z,98625.97
2023-07-25T08:25:02.719Z,98636.78
2023-07-25T08:27:30.500Z,98641.88
2023-07-25T08:29:57.783Z,98623.97
2023-07-25T08:32:27.144Z,98618.50
2023-07-25T08:34:55.193Z,98622.53
2023-07-25T08:37:24.620Z,98629.38
2023-07-25T08:39:52.014Z,98621.75
2023-07-25T08:42:23.733Z,98618.25
2023-07-25T08:44:55.190Z,98614.25
2023-07-25T08:47:29.967Z,98617.31
2023-07-25T08:49:59.057Z,98609.75
2023-07-25T08:52:32.050Z,98609.75
2023-07-25T08:54:59.573Z,98613.22
2023-07-25T08:57:29.084Z,98600.00
2023-07-25T08:59:56.799Z,98612.59
2023-07-25T09:02:25.334Z,98603.47
2023-07-25T09:04:55.655Z,98611.72
2023-07-25T09:07:23.301Z,98618.59
2023-07-25T09:09:50.894Z,98614.63
2023-07-25T09:12:19.321Z,98620.78
2023-07-25T09:14:46.735Z,98616.59
2023-07-25T09:17:14.427Z,98624.75
2023-07-25T09:19:42.811Z,98620.78
2023-07-25T09:22:32.730Z,98640.00
2023-07-25T09:25:01.010Z,98636.00
2023-07-25T09:27:28.823Z,98637.19
2023-07-25T09:29:56.348Z,98628.56
2023-07-25T09:32:29.046Z,98606.19
2023-07-25T09:35:01.964Z,98619.16
2023-07-25T09:37:30.400Z,98628.81
2023-07-25T09:39:57.767Z,98643.69
2023-07-25T09:42:26.909Z,98627.19
2023-07-25T09:44:57.496Z,98631.22
2023-07-25T09:47:29.389Z,98638.47
2023-07-25T09:49:57.944Z,98629.63
2023-07-25T09:52:26.565Z,98638.47
2023-07-25T09:54:53.900Z,98639.63
2023-07-25T09:57:21.568Z,98622.38
2023-07-25T09:59:50.901Z,98629.94
2023-07-25T10:02:19.283Z,98618.75
2023-07-25T10:04:47.807Z,98615.19
2023-07-25T10:07:16.633Z,98631.25
2023-07-25T10:09:47.438Z,98629.19
2023-07-25T10:12:14.941Z,98624.72
2023-07-25T10:14:42.634Z,98627.78
2023-07-25T10:17:10.296Z,98628.69
2023-07-25T10:19:53.724Z,98624.66
2023-07-25T10:22:41.953Z,98625.50
2023-07-25T10:25:31.003Z,98625.88
2023-07-25T10:28:03.316Z,98633.44
2023-07-25T10:30:32.894Z,98627.69
2023-07-25T10:33:02.794Z,98626.84
2023-07-25T10:35:51.043Z,98629.06
2023-07-25T10:38:46.609Z,98623.09
2023-07-25T10:41:14.708Z,98619.25
2023-07-25T10:43:50.145Z,98606.38
2023-07-25T10:46:27.676Z,98615.88
2023-07-25T10:49:05.800Z,98618.94
2023-07-25T10:51:53.523Z,98609.78
2023-07-25T10:54:23.624Z,98605.78
2023-07-25T10:57:16.130Z,98619.38
2023-07-25T11:00:05.915Z,98607.84
2023-07-25T11:02:42.162Z,98615.84
2023-07-25T11:05:15.515Z,98613.09
2023-07-25T11:07:46.279Z,98613.72
2023-07-25T11:10:20.159Z,98599.41
2023-07-25T11:12:56.316Z,98597.00
2023-07-25T11:15:45.014Z,98606.44
2023-07-25T11:18:12.961Z,98603.47
2023-07-25T11:20:40.568Z,98594.38
2023-07-25T11:23:08.450Z,98588.13
2023-07-25T11:25:36.072Z,98590.97
2023-07-25T11:28:03.827Z,98581.34
2023-07-25T11:30:31.210Z,98570.97
2023-07-25T11:32:58.985Z,98573.41
2023-07-25T11:35:26.505Z,98578.22
2023-07-25T11:38:02.427Z,98572.56
2023-07-25T11:40:33.143Z,98570.13
2023-07-25T11:43:01.035Z,98574.03
2023-07-25T11:45:28.583Z,98588.63
2023-07-25T11:47:57.055Z,98593.47
2023-07-25T11:50:30.140Z,98593.44
2023-07-25T11:53:00.463Z,98606.72
2023-07-25T11:55:29.068Z,98603.94
2023-07-25T11:57:56.942Z,98602.28
2023-07-25T12:00:25.050Z,98602.72
2023-07-25T12:02:52.970Z,98608.75
2023-07-25T12:05:29.116Z,98611.13
2023-07-25T12:08:02.293Z,98602.28
2023-07-25T12:10:35.593Z,98613.53
2023-07-25T12:13:05.049Z,98630.38
2023-07-25T12:15:47.117Z,98625.53
2023-07-25T12:18:27.830Z,98623.91
2023-07-25T12:21:00.337Z,98632.72
2023-07-25T12:23:31.794Z,98633.06
2023-07-25T12:26:02.634Z,98651.91
2023-07-25T12:28:46.301Z,98658.91
2023-07-25T12:31:14.652Z,98664.47
2023-07-25T12:33:46.727Z,98672.25
2023-07-25T12:36:14.141Z,98677.84
2023-07-25T12:38:41.818Z,98687.44
2023-07-25T12:41:09.147Z,98695.31
2023-07-25T12:43:37.166Z,98698.38
2023-07-25T12:46:04.730Z,98687.56
2023-07-25T12:48:32.486Z,98683.63
2023-07-25T12:51:00.382Z,98670.56
2023-07-25T12:54:24.282Z,98689.03
2023-07-25T12:57:13.050Z,98694.41
2023-07-25T12:59:40.607Z,98706.75
2023-07-25T13:02:07.946Z,98729.06
2023-07-25T13:04:35.849Z,98757.09
2023-07-25T13:07:03.357Z,98740.69
2023-07-25T13:09:31.078Z,98744.47
2023-07-25T13:11:58.440Z,98755.38
2023-07-25T13:14:26.191Z,98769.50
2023-07-25T13:16:53.489Z,98780.31
2023-07-25T13:19:21.095Z,98774.63
2023-07-25T13:21:48.486Z,98783.13
2023-07-25T13:24:16.218Z,98779.34
2023-07-25T13:26:43.561Z,98757.09
2023-07-25T13:29:11.279Z,98723.25
2023-07-25T13:31:40.580Z,98678.09
2023-07-25T13:34:08.264Z,98675.44
2023-07-25T13:36:36.928Z,98708.97
2023-07-25T13:39:04.594Z,98741.38
2023-07-25T13:41:32.013Z,98743.88
2023-07-25T13:43:59.902Z,98728.75
2023-07-25T13:46:27.265Z,98711.16
2023-07-25T13:48:54.919Z,98716.19
2023-07-25T13:51:22.410Z,98722.66
2023-07-25T13:53:50.053Z,98695.94
2023-07-25T13:56:17.416Z,98700.06
2023-07-25T13:58:47.354Z,98622.09
2023-07-25T14:01:15.180Z,98620.09
2023-07-25T14:03:43.051Z,98622.94
2023-07-25T14:06:10.510Z,98596.28
2023-07-25T14:08:38.288Z,98597.31
2023-07-25T14:11:05.789Z,98605.13
2023-07-25T14:13:33.487Z,98600.03
2023-07-25T14:16:00.881Z,98557.53
2023-07-25T14:18:28.524Z,98526.63
2023-07-25T14:21:00.755Z,98529.84
2023-07-25T14:23:28.706Z,98539.78
2023-07-25T14:25:56.031Z,98545.94
2023-07-25T14:28:23.695Z,98542.63
2023-07-25T14:30:51.270Z,98548.47
2023-07-25T14:33:21.797Z,98540.00
2023-07-25T14:35:49.533Z,98538.69
2023-07-25T14:38:18.476Z,98533.28
2023-07-25T14:40:47.066Z,98546.25
2023-07-25T14:43:14.933Z,98528.47
2023-07-25T14:45:42.188Z,98526.13
2023-07-25T14:48:09.903Z,98513.41
2023-07-25T14:50:38.035Z,98494.44
2023-07-25T14:53:05.750Z,98507.41
2023-07-25T14:55:33.329Z,98499.47
2023-07-25T14:58:01.263Z,98492.50
2023-07-25T15:00:29.008Z,98513.94
2023-07-25T15:02:56.836Z,98514.44
2023-07-25T15:05:24.196Z,98503.28
2023-07-25T15:07:51.853Z,98491.69
2023-07-25T15:10:19.294Z,98482.00
2023-07-25T15:12:47.658Z,98473.69
2023-07-25T15:15:14.976Z,98471.31
2023-07-25T15:17:43.069Z,98473.31
2023-07-25T15:20:35.875Z,98465.03
2023-07-25T15:23:04.607Z,98468.47
2023-07-25T15:25:31.925Z,98454.63
2023-07-25T15:27:59.645Z,98450.66
2023-07-25T15:30:27.394Z,98456.88
2023-07-25T15:32:55.179Z,98443.06
2023-07-25T15:35:26.421Z,98445.34
2023-07-25T15:37:57.271Z,98436.88
2023-07-25T15:40:24.878Z,98413.25
2023-07-25T15:42:52.751Z,98420.56
2023-07-25T15:45:20.074Z,98422.47
2023-07-25T15:47:47.745Z,98428.72
2023-07-25T15:50:15.329Z,98419.78
2023-07-25T15:52:42.902Z,98425.56
2023-07-25T15:55:10.242Z,98406.66
2023-07-25T15:57:37.986Z,98340.66
2023-07-25T16:00:08.398Z,98328.66
2023-07-25T16:02:36.655Z,98318.38
2023-07-25T16:05:04.380Z,98313.97
2023-07-25T16:07:35.266Z,98333.22
2023-07-25T16:10:04.455Z,98335.09
2023-07-25T16:12:33.826Z,98359.00
2023-07-25T16:15:01.253Z,98364.94
2023-07-25T16:17:28.969Z,98357.38
2023-07-25T16:19:56.400Z,98366.31
2023-07-25T16:22:24.121Z,98360.88
2023-07-25T16:24:51.585Z,98371.50
2023-07-25T16:27:19.326Z,98370.09
2023-07-25T16:29:46.883Z,98376.69
2023-07-25T16:32:14.742Z,98365.19
2023-07-25T16:34:42.193Z,98384.16
2023-07-25T16:37:09.953Z,98386.47
2023-07-25T16:39:37.273Z,98402.41
2023-07-25T16:42:05.163Z,98408.03
2023-07-25T16:44:32.561Z,98404.34
2023-07-25T16:47:00.219Z,98396.31
2023-07-25T16:49:29.267Z,98405.94
2023-07-25T16:51:57.818Z,98392.44
2023-07-25T16:54:26.641Z,98409.00
2023-07-25T16:56:54.352Z,98409.53
2023-07-25T16:59:21.702Z,98424.06
2023-07-25T17:01:49.367Z,98416.91
2023-07-25T17:04:17.532Z,98407.38
2023-07-25T17:06:45.241Z,98397.53
2023-07-25T17:09:12.596Z,98381.59
2023-07-25T17:11:43.697Z,98323.47
2023-07-25T17:14:11.123Z,98318.00
2023-07-25T17:16:38.795Z,98327.50
2023-07-25T17:19:06.148Z,98331.19
2023-07-25T17:21:40.875Z,98305.63
2023-07-25T17:24:09.268Z,98315.66
2023-07-25T17:26:36.899Z,98311.34
2023-07-25T17:29:04.397Z,98318.00
2023-07-25T17:31:32.425Z,98308.19
2023-07-25T17:34:00.022Z,98289.00
2023-07-25T17:36:27.732Z,98291.56
2023-07-25T17:38:55.095Z,98291.34
2023-07-25T17:41:23.796Z,98280.13
2023-07-25T17:43:51.412Z,98269.84
2023-07-25T17:46:19.240Z,98257.59
2023-07-25T17:48:46.673Z,98258.69
2023-07-25T17:51:14.458Z,98262.19
2023-07-25T17:53:41.806Z,98248.25
2023-07-25T17:56:10.593Z,98247.06
2023-07-25T17:58:38.039Z,98245.34
2023-07-25T18:01:05.935Z,98232.47
2023-07-25T18:03:33.680Z,98243.66
2023-07-25T18:06:01.428Z,98237.44
2023-07-25T18:08:28.867Z,98228.09
2023-07-25T18:10:56.658Z,98214.91
2023-07-25T18:13:25.031Z,98232.94
2023-07-25T18:15:52.747Z,98233.41
2023-07-25T18:18:20.348Z,98237.22
2023-07-25T18:20:48.669Z,98227.16
2023-07-25T18:23:20.114Z,98234.44
2023-07-25T18:25:48.355Z,98243.63
2023-07-25T18:28:18.639Z,98240.59
2023-07-25T18:30:46.350Z,98238.59
2023-07-25T18:33:15.417Z,98236.69
2023-07-25T18:35:43.263Z,98229.41
2023-07-25T18:38:10.718Z,98219.44
2023-07-25T18:40:39.007Z,98223.00
2023-07-25T18:43:06.985Z,98235.66
2023-07-25T18:45:34.638Z,98242.22
2023-07-25T18:48:02.049Z,98236.69
2023-07-25T18:50:30.944Z,98251.13
2023-07-25T18:52:58.531Z,98246.72
2023-07-25T18:55:26.300Z,98240.25
2023-07-25T18:57:54.385Z,98246.63
2023-07-25T19:00:22.395Z,98258.22
2023-07-25T19:02:51.263Z,98252.69
2023-07-25T19:05:18.956Z,98252.06
2023-07-25T19:07:46.508Z,98234.78
2023-07-25T19:10:18.831Z,98233.75
2023-07-25T19:12:46.567Z,98235.06
2023-07-25T19:15:14.445Z,98257.16
2023-07-25T19:17:41.813Z,98256.38
2023-07-25T19:20:11.069Z,98246.31
2023-07-25T19:22:38.659Z,98236.84
2023-07-25T19:25:06.745Z,98243.75
2023-07-25T19:27:34.788Z,98262.78
2023-07-25T19:30:02.798Z,98236.81
2023-07-25T19:32:30.225Z,98229.56
2023-07-25T19:34:58.029Z,98235.09
2023-07-25T19:37:25.422Z,98248.38
2023-07-25T19:39:53.273Z,98237.56
2023-07-25T19:42:20.671Z,98244.03
2023-07-25T19:44:49.476Z,98230.19
2023-07-25T19:47:16.757Z,98230.06
2023-07-25T19:49:44.455Z,98235.59
2023-07-25T19:52:11.816Z,98243.56
2023-07-25T19:54:39.556Z,98234.47
2023-07-25T19:57:07.065Z,98235.25
2023-07-25T19:59:34.848Z,98229.03
2023-07-25T20:02:02.459Z,98228.47
2023-07-25T20:04:30.304Z,98216.22
2023-07-25T20:06:57.715Z,98237.84
2023-07-25T20:09:25.379Z,98247.47
2023-07-25T20:11:52.682Z,98242.97
2023-07-25T20:14:21.122Z,98240.72
2023-07-25T20:16:48.492Z,98240.72
2023-07-25T20:19:18.588Z,98228.25
2023-07-25T20:21:49.640Z,98233.69
2023-07-25T20:24:17.909Z,98228.00
2023-07-25T20:26:45.324Z,98223.41
2023-07-25T20:29:12.976Z,98220.19
2023-07-25T20:31:40.318Z,98220.19
2023-07-25T20:34:08.124Z,98158.25
2023-07-25T20:36:35.667Z,98222.41
2023-07-25T20:39:03.585Z,98214.06
2023-07-25T20:41:31.484Z,98209.19
2023-07-25T20:44:01.630Z,98189.56
2023-07-25T20:46:29.290Z,98202.50
2023-07-25T20:48:57.117Z,98205.94
2023-07-25T20:51:24.546Z,98221.81
2023-07-25T20:53:52.959Z,98216.41
2023-07-25T20:56:20.541Z,98220.47
2023-07-25T20:58:48.357Z,98217.47
2023-07-25T21:01:16.233Z,98224.38
2023-07-25T21:03:44.685Z,98203.59
2023-07-25T21:06:12.079Z,98222.19
2023-07-25T21:08:39.823Z,98225.56
2023-07-25T21:11:09.311Z,98217.97
2023-07-25T21:13:38.221Z,98213.91
2023-07-25T21:16:05.910Z,98215.38
2023-07-25T21:18:34.862Z,98203.63
2023-07-25T21:21:07.418Z,98213.31
2023-07-25T21:23:37.438Z,98207.84
2023-07-25T21:26:05.304Z,98206.91
2023-07-25T21:28:34.642Z,98202.88
2023-07-25T21:31:02.589Z,98191.47
2023-07-25T21:33:30.269Z,98201.50
2023-07-25T21:36:11.911Z,98191.47
2023-07-25T21:38:40.686Z,98178.34
2023-07-25T21:41:13.477Z,98184.13
2023-07-25T21:43:43.132Z,98190.97
2023-07-25T21:46:10.993Z,98181.19
2023-07-25T21:48:38.897Z,98169.19
2023-07-25T21:51:06.529Z,98164.53
2023-07-25T21:53:34.777Z,98163.84
2023-07-25T21:56:02.084Z,98164.41
2023-07-25T21:58:29.839Z,98171.88
2023-07-25T22:00:59.264Z,98176.44
2023-07-25T22:03:31.664Z,98177.56
2023-07-25T22:06:00.823Z,98170.59
2023-07-25T22:08:28.542Z,98169.63
2023-07-25T22:10:56.587Z,98172.44
2023-07-25T22:13:25.459Z,98171.50
2023-07-25T22:15:52.983Z,98159.59
2023-07-25T22:18:21.009Z,98154.75
2023-07-25T22:20:52.471Z,98146.66
2023-07-25T22:23:22.628Z,98126.16
2023-07-25T22:25:50.167Z,98158.84
2023-07-25T22:28:18.060Z,98147.19
2023-07-25T22:30:45.382Z,98144.47
2023-07-25T22:33:14.136Z,98146.06
2023-07-25T22:35:41.454Z,98160.13
2023-07-25T22:38:09.163Z,98140.06
2023-07-25T22:40:36.568Z,98156.13
2023-07-25T22:43:04.534Z,98161.53
2023-07-25T22:45:32.192Z,98156.88
2023-07-25T22:48:00.006Z,98164.31
2023-07-25T22:50:27.332Z,98158.78
2023-07-25T22:52:55.199Z,98186.75
2023-07-25T22:55:22.608Z,98163.94
2023-07-25T22:57:50.363Z,98151.69
2023-07-25T23:00:18.209Z,98156.38
2023-07-25T23:02:46.184Z,98161.47
2023-07-25T23:05:14.052Z,98171.19
2023-07-25T23:07:41.939Z,98178.19
2023-07-25T23:10:09.819Z,98168.13
2023-07-25T23:12:37.601Z,98174.31
2023-07-25T23:15:05.658Z,98186.72
2023-07-25T23:17:33.577Z,98186.97
2023-07-25T23:20:01.071Z,98198.63
2023-07-25T23:22:28.867Z,98195.09
2023-07-25T23:24:57.453Z,98194.75
2023-07-25T23:27:25.419Z,98187.47
2023-07-25T23:29:52.837Z,98193.00
2023-07-25T23:32:20.574Z,98195.50
2023-07-25T23:34:50.500Z,98182.38
2023-07-25T23:37:18.493Z,98194.25
2023-07-25T23:39:46.111Z,98196.50
2023-07-25T23:42:15.203Z,98198.59
2023-07-25T23:44:44.196Z,98185.81
2023-07-25T23:47:13.987Z,98181.38
2023-07-25T23:49:41.481Z,98189.38
2023-07-25T23:52:09.162Z,98184.88
2023-07-25T23:54:36.546Z,98190.84
2023-07-25T23:57:04.762Z,98171.56
2023-07-25T23:59:32.345Z,98196.69
